Weather forecast for Mishelevka (Мишелевка)

Russia, 412 m
N52.890, E103.197


Sounding

Red line — air temperature ˚C.
Blue line — thermal bubble temperature ˚C.
Green line — dew point temperature ˚C.
Wind speed is in meters per second.

Table forecast

GFS 0.25˚ model

temp. wind gust humid. clouds prec. press. hpbl
Sat19 00:00 -12 295.0 wnw 2 3 95 100 0.1 1039 42
03:00 -15 274.0 w 1 2 98 81 0.2 1041 20
06:00 -17 172.0 s 1 2 100 14 0.0 1040 20
09:00 -17 129.0 se 2 3 100 23 0.0 1039 20
12:00 -15 130.0 se 3 7 98 96 0.0 1038 177
15:00 -10 130.0 se 4 7 87 84 0.0 1033 243
18:00 -11 128.0 se 3 6 88 77 0.0 1031 100
21:00 -12 132.0 se 3 3 89 78 0.0 1031 32
 
Sun20 00:00 -14 131.0 se 2 2 88 91 0.0 1030 20
03:00 -16 154.0 sse 1 1 89 75 0.0 1029 20
06:00 -16 276.0 w 1 1 82 88 0.0 1029 20
09:00 -15 225.0 sw 1 1 73 93 0.0 1029 20
12:00 -13 172.0 s 1 1 75 100 0.0 1029 20
15:00 -9 155.0 sse 1 1 78 100 0.0 1026 34
18:00 -11 159.0 sse 1 1 72 99 0.0 1026 21
21:00 -14 164.0 sse 1 1 71 97 0.0 1027 21
 
Mon21 00:00 -14 159.0 sse 2 2 79 84 0.0 1026 20
03:00 -15 154.0 sse 1 2 84 75 0.0 1025 20
06:00 -15 130.0 se 1 1 82 94 0.0 1024 20
09:00 -12 215.0 sw 0 1 79 96 0.0 1024 20
12:00 -10 220.0 sw 1 2 79 90 0.0 1023 22
15:00 -7 220.0 sw 0 0 73 47 0.0 1021 47
18:00 -10 152.0 sse 1 1 72 32 0.0 1021 21
21:00 -12 120.0 ese 1 2 74 55 0.0 1022 21
 
Tue22 00:00 -13 110.0 ese 2 2 78 64 0.0 1021 21
03:00 -13 102.0 ese 1 2 80 78 0.0 1020 21
06:00 -14 125.0 se 0 1 82 96 0.0 1020 21
09:00 -15 299.0 wnw 1 1 83 91 0.0 1022 20
12:00 -13 291.0 wnw 2 2 84 100 0.0 1024 24
15:00 -9 285.0 wnw 2 3 83 100 0.0 1024 124
18:00 -9 324.0 nw 1 1 80 100 0.0 1026 21
21:00 -11 257.0 wsw 1 1 76 89 0.0 1030 21
 
Wed23 00:00 -8 282.0 wnw 2 2 88 100 0.2 1032 38
03:00 -11 313.0 nw 2 3 92 80 0.3 1034 21
06:00 -15 311.0 nw 2 3 88 1 0.0 1036 20
09:00 -17 313.0 nw 1 1 88 14 0.0 1037 20
12:00 -15 115.0 ese 1 1 87 20 0.0 1038 20
15:00 -11 108.0 ese 2 4 86 15 0.0 1034 181
18:00 -12 110.0 ese 3 4 89 24 0.0 1034 75
21:00 -14 115.0 ese 3 4 86 19 0.0 1036 60
 

0.009 s